createdAt,value
2023-07-24T00:00:33.257Z,100
2023-07-24T00:01:32.668Z,100
2023-07-24T00:02:32.714Z,100
2023-07-24T00:03:32.699Z,100
2023-07-24T00:04:32.666Z,100
2023-07-24T00:05:33.454Z,100
2023-07-24T00:06:33.069Z,100
2023-07-24T00:07:32.883Z,100
2023-07-24T00:08:32.647Z,100
2023-07-24T00:09:32.664Z,100
2023-07-24T00:10:32.696Z,100
2023-07-24T00:11:32.661Z,100
2023-07-24T00:12:32.659Z,100
2023-07-24T00:13:32.698Z,100
2023-07-24T00:14:32.670Z,100
2023-07-24T00:15:32.930Z,100
2023-07-24T00:16:33.669Z,100
2023-07-24T00:17:32.693Z,100
2023-07-24T00:18:32.671Z,100
2023-07-24T00:19:33.330Z,100
2023-07-24T00:20:32.799Z,100
2023-07-24T00:21:33.197Z,95.7
2023-07-24T00:23:32.748Z,100
2023-07-24T00:24:33.418Z,100
2023-07-24T00:25:32.654Z,100
2023-07-24T00:26:32.895Z,100
2023-07-24T00:27:32.932Z,100
2023-07-24T00:29:32.060Z,100
2023-07-24T00:30:32.736Z,100
2023-07-24T00:31:32.701Z,100
2023-07-24T00:32:32.696Z,100
2023-07-24T00:33:32.652Z,100
2023-07-24T00:34:32.687Z,100
2023-07-24T00:35:32.904Z,100
2023-07-24T00:36:33.390Z,100
2023-07-24T00:37:32.676Z,95
2023-07-24T00:38:33.423Z,91.8
2023-07-24T00:39:33.497Z,100
2023-07-24T00:40:32.855Z,100
2023-07-24T00:41:33.174Z,98
2023-07-24T00:42:32.691Z,100
2023-07-24T00:43:32.682Z,100
2023-07-24T00:44:32.668Z,100
2023-07-24T00:45:32.674Z,92.4
2023-07-24T00:46:33.054Z,85.9
2023-07-24T00:47:32.924Z,82.9
2023-07-24T00:48:32.832Z,90.2
2023-07-24T00:49:32.702Z,86.2
2023-07-24T00:50:33.257Z,94.4
2023-07-24T00:51:32.687Z,100
2023-07-24T00:52:32.543Z,100
2023-07-24T00:53:32.690Z,100
2023-07-24T00:54:32.700Z,100
2023-07-24T00:55:32.701Z,100
2023-07-24T00:56:33.127Z,100
2023-07-24T00:57:32.939Z,100
2023-07-24T00:58:33.077Z,90.8
2023-07-24T00:59:31.740Z,98.1
2023-07-24T01:00:32.768Z,98.6
2023-07-24T01:01:32.716Z,94.8
2023-07-24T01:02:33.428Z,98.2
2023-07-24T01:03:32.694Z,97.6
2023-07-24T01:04:32.932Z,96.6
2023-07-24T01:05:32.668Z,93.7
2023-07-24T01:06:32.990Z,97.2
2023-07-24T01:07:33.509Z,84.7
2023-07-24T01:08:33.072Z,87.9
2023-07-24T01:09:32.801Z,82.6
2023-07-24T01:10:32.984Z,81.9
2023-07-24T01:11:32.971Z,82.5
2023-07-24T01:12:33.390Z,90.9
2023-07-24T01:13:33.350Z,89.9
2023-07-24T01:14:33.368Z,87.9
2023-07-24T01:15:33.592Z,86.7
2023-07-24T01:16:32.960Z,90.8
2023-07-24T01:17:32.939Z,81.5
2023-07-24T01:18:33.361Z,77.7
2023-07-24T01:19:32.697Z,81.5
2023-07-24T01:20:33.612Z,91.6
2023-07-24T01:21:32.674Z,89.1
2023-07-24T01:22:32.700Z,87.5
2023-07-24T01:23:32.697Z,80.2
2023-07-24T01:24:32.753Z,81.4
2023-07-24T01:25:32.758Z,93.3
2023-07-24T01:26:33.112Z,86.2
2023-07-24T01:27:32.672Z,91.7
2023-07-24T01:28:32.688Z,97.2
2023-07-24T01:29:32.372Z,100
2023-07-24T01:30:32.726Z,100
2023-07-24T01:31:32.698Z,97.9
2023-07-24T01:32:32.744Z,100
2023-07-24T01:33:33.504Z,100
2023-07-24T01:34:32.709Z,100
2023-07-24T01:35:33.136Z,100
2023-07-24T01:36:32.983Z,100
2023-07-24T01:37:32.692Z,100
2023-07-24T01:38:32.690Z,100
2023-07-24T01:39:33.467Z,100
2023-07-24T01:40:32.888Z,97.3
2023-07-24T01:41:32.726Z,93.4
2023-07-24T01:42:32.764Z,94.6
2023-07-24T01:43:32.715Z,94.7
2023-07-24T01:44:33.258Z,90.7
2023-07-24T01:45:32.702Z,94.3
2023-07-24T01:46:33.617Z,91.1
2023-07-24T01:47:32.810Z,89.2
2023-07-24T01:48:32.755Z,81.8
2023-07-24T01:49:32.700Z,98
2023-07-24T01:50:32.696Z,100
2023-07-24T01:51:33.220Z,91.4
2023-07-24T01:52:32.989Z,88.3
2023-07-24T01:53:32.698Z,92.5
2023-07-24T01:54:32.696Z,85.4
2023-07-24T01:55:33.540Z,90.9
2023-07-24T01:56:33.147Z,86.7
2023-07-24T01:57:32.751Z,85
2023-07-24T01:58:32.702Z,77.8
2023-07-24T01:59:32.693Z,76.5
2023-07-24T02:00:32.678Z,74.8
2023-07-24T02:01:32.743Z,77.5
2023-07-24T02:03:33.228Z,85.5
2023-07-24T02:04:32.710Z,94.6
2023-07-24T02:05:32.701Z,86.7
2023-07-24T02:06:32.777Z,78.7
2023-07-24T02:07:32.722Z,88.9
2023-07-24T02:08:33.426Z,84.4
2023-07-24T02:09:32.858Z,77.5
2023-07-24T02:10:32.714Z,79.7
2023-07-24T02:11:32.704Z,80.2
2023-07-24T02:12:32.706Z,76.1
2023-07-24T02:13:32.729Z,76.1
2023-07-24T02:14:32.724Z,77.5
2023-07-24T02:15:32.700Z,80.5
2023-07-24T02:16:33.882Z,90.8
2023-07-24T02:17:32.787Z,78.4
2023-07-24T02:18:32.702Z,83.8
2023-07-24T02:19:32.739Z,78.6
2023-07-24T02:20:33.238Z,74.4
2023-07-24T02:21:32.713Z,72.9
2023-07-24T02:22:32.717Z,76.8
2023-07-24T02:23:33.692Z,73.2
2023-07-24T02:24:32.807Z,76.2
2023-07-24T02:25:32.760Z,84
2023-07-24T02:26:32.717Z,78.5
2023-07-24T02:27:32.709Z,74
2023-07-24T02:28:32.696Z,76.1
2023-07-24T02:29:31.768Z,74.1
2023-07-24T02:30:32.805Z,71.6
2023-07-24T02:31:33.263Z,72.8
2023-07-24T02:32:32.748Z,70.8
2023-07-24T02:33:32.859Z,69.7
2023-07-24T02:34:32.701Z,72.5
2023-07-24T02:35:33.375Z,78.3
2023-07-24T02:36:33.007Z,71.5
2023-07-24T02:37:32.912Z,69.6
2023-07-24T02:38:32.726Z,71.4
2023-07-24T02:39:32.895Z,77
2023-07-24T02:40:32.718Z,76.1
2023-07-24T02:41:32.727Z,83.9
2023-07-24T02:42:33.444Z,86.4
2023-07-24T02:43:32.694Z,76.1
2023-07-24T02:44:32.712Z,73.3
2023-07-24T02:45:32.719Z,72.3
2023-07-24T02:46:33.090Z,81
2023-07-24T02:47:32.749Z,73.9
2023-07-24T02:48:32.716Z,78.5
2023-07-24T02:49:32.757Z,78.6
2023-07-24T02:50:33.361Z,81.8
2023-07-24T02:51:32.718Z,89.2
2023-07-24T02:52:32.998Z,80.2
2023-07-24T02:53:32.731Z,76.3
2023-07-24T02:54:32.994Z,75
2023-07-24T02:55:32.699Z,77
2023-07-24T02:56:34.069Z,86.2
2023-07-24T02:57:32.725Z,84.4
2023-07-24T02:58:32.723Z,93.1
2023-07-24T02:59:31.775Z,85.2
2023-07-24T03:00:32.746Z,82.9
2023-07-24T03:01:32.774Z,80.9
2023-07-24T03:02:33.499Z,91.2
2023-07-24T03:03:32.844Z,85.3
2023-07-24T03:04:32.735Z,91.8
2023-07-24T03:05:33.246Z,92.2
2023-07-24T03:06:32.966Z,83.7
2023-07-24T03:07:33.211Z,93.2
2023-07-24T03:08:32.767Z,95.3
2023-07-24T03:09:33.502Z,89.3
2023-07-24T03:10:32.709Z,90.5
2023-07-24T03:11:33.011Z,83.1
2023-07-24T03:12:32.734Z,85.1
2023-07-24T03:13:33.237Z,91.5
2023-07-24T03:14:32.735Z,90.1
2023-07-24T03:15:32.907Z,90.1
2023-07-24T03:16:32.821Z,89.9
2023-07-24T03:17:33.598Z,81
2023-07-24T03:18:32.766Z,90.7
2023-07-24T03:19:32.729Z,84.7
2023-07-24T03:20:32.734Z,78.8
2023-07-24T03:21:32.725Z,83.6
2023-07-24T03:22:32.473Z,84.6
2023-07-24T03:23:32.726Z,83.5
2023-07-24T03:24:33.125Z,88.9
2023-07-24T03:25:32.780Z,85.8
2023-07-24T03:26:32.945Z,87.6
2023-07-24T03:27:32.911Z,83.9
2023-07-24T03:28:33.158Z,84.7
2023-07-24T03:29:32.084Z,85.7
2023-07-24T03:30:32.763Z,80.3
2023-07-24T03:31:33.165Z,79.3
2023-07-24T03:32:33.093Z,84.4
2023-07-24T03:33:33.287Z,87
2023-07-24T03:34:32.913Z,82.1
2023-07-24T03:35:31.790Z,78.6
2023-07-24T03:36:33.216Z,79
2023-07-24T03:37:32.736Z,77.4
2023-07-24T03:38:32.726Z,79.9
2023-07-24T03:39:33.734Z,84.5
2023-07-24T03:40:32.714Z,85.6
2023-07-24T03:41:33.423Z,82.5
2023-07-24T03:42:32.750Z,84.3
2023-07-24T03:43:32.825Z,77
2023-07-24T03:44:32.740Z,82
2023-07-24T03:45:33.445Z,76.5
2023-07-24T03:46:33.001Z,79.7
2023-07-24T03:47:32.773Z,80.6
2023-07-24T03:48:33.461Z,80.1
2023-07-24T03:49:32.749Z,83.1
2023-07-24T03:50:32.745Z,81.1
2023-07-24T03:51:32.913Z,79
2023-07-24T03:52:32.769Z,74.8
2023-07-24T03:53:33.358Z,83.5
2023-07-24T03:54:33.236Z,87.3
2023-07-24T03:55:33.245Z,91.4
2023-07-24T03:56:33.016Z,96.8
2023-07-24T03:57:32.739Z,90.6
2023-07-24T03:58:33.101Z,89.7
2023-07-24T03:59:31.798Z,84.6
2023-07-24T04:00:32.725Z,84.5
2023-07-24T04:01:32.740Z,84
2023-07-24T04:02:33.606Z,85.5
2023-07-24T04:03:32.794Z,93
2023-07-24T04:04:33.176Z,84.6
2023-07-24T04:05:32.727Z,93.4
2023-07-24T04:06:32.932Z,92.3
2023-07-24T04:07:32.735Z,88.1
2023-07-24T04:08:32.734Z,90.2
2023-07-24T04:09:32.766Z,86.6
2023-07-24T04:10:33.245Z,80
2023-07-24T04:11:32.736Z,76.9
2023-07-24T04:12:32.732Z,80.8
2023-07-24T04:13:32.748Z,88.5
2023-07-24T04:14:32.718Z,89.8
2023-07-24T04:15:33.467Z,88.5
2023-07-24T04:16:33.721Z,92.5
2023-07-24T04:17:33.457Z,91.3
2023-07-24T04:18:32.745Z,83.5
2023-07-24T04:19:33.237Z,91.9
2023-07-24T04:20:32.736Z,91.9
2023-07-24T04:21:33.236Z,85.7
2023-07-24T04:22:33.198Z,79.7
2023-07-24T04:23:32.733Z,87.1
2023-07-24T04:24:33.376Z,79.9
2023-07-24T04:25:32.789Z,89.8
2023-07-24T04:26:34.956Z,90.6
2023-07-24T04:27:32.969Z,89.9
2023-07-24T04:28:33.533Z,80.7
2023-07-24T04:29:31.799Z,86.3
2023-07-24T04:30:32.815Z,86.9
2023-07-24T04:31:32.887Z,82.1
2023-07-24T04:32:33.182Z,82.5
2023-07-24T04:33:33.131Z,77.8
2023-07-24T04:34:33.252Z,79.9
2023-07-24T04:35:32.759Z,80.2
2023-07-24T04:36:33.029Z,79.7
2023-07-24T04:37:32.728Z,81.9
2023-07-24T04:38:32.737Z,78
2023-07-24T04:39:32.860Z,79.6
2023-07-24T04:40:32.933Z,78.1
2023-07-24T04:41:33.140Z,79
2023-07-24T04:42:32.742Z,82.1
2023-07-24T04:43:32.773Z,78.7
2023-07-24T04:44:33.207Z,74.1
2023-07-24T04:45:32.733Z,72.9
2023-07-24T04:46:33.068Z,72.1
2023-07-24T04:47:32.772Z,74.8
2023-07-24T04:48:32.729Z,75.4
2023-07-24T04:49:33.350Z,72.2
2023-07-24T04:50:32.775Z,72.8
2023-07-24T04:51:34.565Z,70.9
2023-07-24T04:52:33.209Z,71.7
2023-07-24T04:53:33.449Z,71.4
2023-07-24T04:54:32.749Z,69.7
2023-07-24T04:55:33.799Z,69.9
2023-07-24T04:57:32.752Z,68.6
2023-07-24T04:58:32.736Z,70.8
2023-07-24T04:59:32.734Z,69.2
2023-07-24T05:00:33.138Z,68.2
2023-07-24T05:01:32.529Z,67.8
2023-07-24T05:02:32.985Z,68.5
2023-07-24T05:03:32.753Z,72.8
2023-07-24T05:04:32.802Z,69.1
2023-07-24T05:05:32.749Z,71
2023-07-24T05:06:33.025Z,69.5
2023-07-24T05:07:32.739Z,72.4
2023-07-24T05:08:32.763Z,69.3
2023-07-24T05:09:33.466Z,68.3
2023-07-24T05:10:32.820Z,69.9
2023-07-24T05:11:32.983Z,67.8
2023-07-24T05:12:32.848Z,75.5
2023-07-24T05:14:32.760Z,68.5
2023-07-24T05:15:33.291Z,71
2023-07-24T05:16:33.692Z,71
2023-07-24T05:18:32.758Z,68.4
2023-07-24T05:19:32.758Z,70.3
2023-07-24T05:20:32.881Z,68.1
2023-07-24T05:21:33.169Z,70.5
2023-07-24T05:22:32.774Z,67.8
2023-07-24T05:23:32.776Z,67.1
2023-07-24T05:24:32.773Z,66.7
2023-07-24T05:25:32.741Z,66
2023-07-24T05:26:33.078Z,65.6
2023-07-24T05:27:32.737Z,65.2
2023-07-24T05:28:32.872Z,66.7
2023-07-24T05:29:32.228Z,70.2
2023-07-24T05:30:33.303Z,66.7
2023-07-24T05:31:32.797Z,66.3
2023-07-24T05:32:32.806Z,65.1
2023-07-24T05:33:33.414Z,64.6
2023-07-24T05:34:33.480Z,65
2023-07-24T05:35:33.013Z,68.1
2023-07-24T05:36:33.007Z,70.1
2023-07-24T05:37:33.258Z,67.8
2023-07-24T05:38:32.795Z,66.1
2023-07-24T05:39:32.758Z,65.8
2023-07-24T05:40:33.352Z,65.2
2023-07-24T05:41:32.771Z,65.6
2023-07-24T05:42:32.766Z,66.1
2023-07-24T05:43:33.114Z,68.8
2023-07-24T05:44:32.764Z,66.3
2023-07-24T05:45:32.763Z,66
2023-07-24T05:46:33.094Z,65.5
2023-07-24T05:47:33.234Z,65.1
2023-07-24T05:48:32.747Z,65
2023-07-24T05:49:32.806Z,64.7
2023-07-24T05:50:32.767Z,67.1
2023-07-24T05:51:33.052Z,65.9
2023-07-24T05:52:31.833Z,64.7
2023-07-24T05:53:32.768Z,64.2
2023-07-24T05:54:33.129Z,65.7
2023-07-24T05:55:32.755Z,63.5
2023-07-24T05:56:33.076Z,64.9
2023-07-24T05:57:32.770Z,64.4
2023-07-24T05:58:33.549Z,65.6
2023-07-24T05:59:32.024Z,63.9
2023-07-24T06:00:32.774Z,65
2023-07-24T06:01:32.856Z,64.4
2023-07-24T06:02:32.805Z,63.9
2023-07-24T06:03:33.148Z,63.6
2023-07-24T06:04:33.016Z,64.6
2023-07-24T06:05:33.309Z,64.5
2023-07-24T06:06:33.705Z,63.8
2023-07-24T06:07:33.491Z,66.1
2023-07-24T06:08:32.756Z,65.4
2023-07-24T06:09:32.806Z,64.5
2023-07-24T06:10:32.795Z,64
2023-07-24T06:11:32.787Z,63.8
2023-07-24T06:12:32.817Z,63.8
2023-07-24T06:13:33.426Z,63.1
2023-07-24T06:14:32.777Z,63.4
2023-07-24T06:15:33.301Z,63.2
2023-07-24T06:16:33.181Z,62.9
2023-07-24T06:17:32.800Z,63
2023-07-24T06:18:32.796Z,62.8
2023-07-24T06:19:32.790Z,62.8
2023-07-24T06:20:33.773Z,63
2023-07-24T06:21:33.657Z,62.6
2023-07-24T06:22:32.761Z,64.3
2023-07-24T06:23:33.293Z,64.4
2023-07-24T06:24:33.373Z,63.7
2023-07-24T06:25:32.877Z,63.4
2023-07-24T06:26:33.029Z,62.8
2023-07-24T06:27:33.374Z,62.9
2023-07-24T06:28:33.574Z,62.9
2023-07-24T06:29:31.864Z,62.3
2023-07-24T06:30:32.887Z,63.6
2023-07-24T06:31:33.672Z,62.5
2023-07-24T06:32:32.839Z,61.5
2023-07-24T06:33:32.804Z,62.5
2023-07-24T06:34:32.870Z,61.8
2023-07-24T06:35:32.782Z,62.8
2023-07-24T06:36:32.948Z,63.5
2023-07-24T06:37:33.182Z,64.3
2023-07-24T06:38:32.782Z,63.3
2023-07-24T06:39:32.787Z,65.1
2023-07-24T06:40:33.047Z,64.6
2023-07-24T06:41:32.762Z,64.1
2023-07-24T06:42:32.775Z,63.3
2023-07-24T06:43:33.245Z,63.6
2023-07-24T06:44:33.505Z,63.2
2023-07-24T06:45:33.316Z,64
2023-07-24T06:46:33.219Z,63.4
2023-07-24T06:47:32.815Z,63.1
2023-07-24T06:48:32.825Z,64.8
2023-07-24T06:49:32.783Z,64.3
2023-07-24T06:50:32.805Z,63.4
2023-07-24T06:51:32.780Z,63.3
2023-07-24T06:52:32.784Z,63.1
2023-07-24T06:53:33.685Z,63.3
2023-07-24T06:54:32.927Z,63.7
2023-07-24T06:55:33.410Z,64
2023-07-24T06:56:33.013Z,64.5
2023-07-24T06:57:32.792Z,64.7
2023-07-24T06:58:33.244Z,64.2
2023-07-24T06:59:31.929Z,64.1
2023-07-24T07:00:33.316Z,63.9
2023-07-24T07:01:32.839Z,66.6
2023-07-24T07:02:32.827Z,64.1
2023-07-24T07:03:33.143Z,63.4
2023-07-24T07:04:33.204Z,65.2
2023-07-24T07:06:33.154Z,63.2
2023-07-24T07:07:33.066Z,65.3
2023-07-24T07:08:32.954Z,63.8
2023-07-24T07:09:33.256Z,65.4
2023-07-24T07:10:32.921Z,66.6
2023-07-24T07:11:33.045Z,65
2023-07-24T07:12:33.383Z,65
2023-07-24T07:13:32.805Z,64
2023-07-24T07:15:33.071Z,64.4
2023-07-24T07:16:33.049Z,63
2023-07-24T07:17:32.843Z,65.9
2023-07-24T07:18:32.805Z,63.4
2023-07-24T07:19:32.793Z,62.7
2023-07-24T07:20:32.898Z,62.2
2023-07-24T07:21:32.790Z,64.9
2023-07-24T07:22:33.241Z,62.3
2023-07-24T07:23:33.183Z,61.9
2023-07-24T07:24:33.255Z,63.1
2023-07-24T07:25:32.793Z,61.5
2023-07-24T07:26:33.271Z,64
2023-07-24T07:27:32.791Z,63.2
2023-07-24T07:28:32.794Z,61.9
2023-07-24T07:30:33.463Z,61.2
2023-07-24T07:31:33.104Z,61.3
2023-07-24T07:32:32.810Z,61
2023-07-24T07:33:32.791Z,61.3
2023-07-24T07:34:32.805Z,61.5
2023-07-24T07:35:33.281Z,61.1
2023-07-24T07:36:33.517Z,61.2
2023-07-24T07:37:33.739Z,61.3
2023-07-24T07:38:32.804Z,61.1
2023-07-24T07:39:32.871Z,63.4
2023-07-24T07:40:32.813Z,61.9
2023-07-24T07:41:33.376Z,61.7
2023-07-24T07:42:33.410Z,62
2023-07-24T07:43:33.520Z,63.6
2023-07-24T07:44:32.947Z,62
2023-07-24T07:45:32.799Z,61.6
2023-07-24T07:46:33.159Z,61.4
2023-07-24T07:47:33.650Z,61.2
2023-07-24T07:48:33.620Z,61.6
2023-07-24T07:49:33.252Z,64.1
2023-07-24T07:50:32.792Z,62.3
2023-07-24T07:51:32.810Z,64.3
2023-07-24T07:52:32.826Z,62.8
2023-07-24T07:53:32.858Z,62.8
2023-07-24T07:54:33.553Z,62.4
2023-07-24T07:55:32.800Z,63.8
2023-07-24T07:56:32.971Z,64.8
2023-07-24T07:57:32.814Z,63.8
2023-07-24T07:58:32.815Z,63.9
2023-07-24T07:59:33.697Z,62.9
2023-07-24T08:00:33.385Z,62.3
2023-07-24T08:01:32.858Z,62.4
2023-07-24T08:02:32.807Z,62.7
2023-07-24T08:03:32.889Z,62.7
2023-07-24T08:04:32.812Z,63.2
2023-07-24T08:05:33.069Z,62.3
2023-07-24T08:06:33.057Z,63
2023-07-24T08:07:32.822Z,62
2023-07-24T08:08:32.852Z,61.9
2023-07-24T08:09:32.808Z,61.5
2023-07-24T08:10:33.157Z,60.9
2023-07-24T08:11:32.817Z,60.7
2023-07-24T08:12:32.817Z,60.3
2023-07-24T08:13:32.959Z,60.4
2023-07-24T08:14:32.860Z,59.7
2023-07-24T08:15:33.120Z,61
2023-07-24T08:16:33.277Z,59.8
2023-07-24T08:17:32.968Z,60.4
2023-07-24T08:18:32.883Z,60.7
2023-07-24T08:19:32.874Z,59.1
2023-07-24T08:20:32.842Z,58.9
2023-07-24T08:21:32.824Z,58.6
2023-07-24T08:22:31.876Z,59.9
2023-07-24T08:23:32.800Z,59.8
2023-07-24T08:24:32.901Z,59.4
2023-07-24T08:25:33.065Z,59.3
2023-07-24T08:26:33.211Z,60.9
2023-07-24T08:27:31.882Z,60.6
2023-07-24T08:28:33.234Z,60.4
2023-07-24T08:29:31.902Z,59.9
2023-07-24T08:30:32.862Z,61.3
2023-07-24T08:31:32.884Z,60.2
2023-07-24T08:32:32.832Z,60
2023-07-24T08:33:32.818Z,59.7
2023-07-24T08:34:32.807Z,59.5
2023-07-24T08:35:33.209Z,63.7
2023-07-24T08:36:33.062Z,63.7
2023-07-24T08:37:32.870Z,62.4
2023-07-24T08:38:32.820Z,63.2
2023-07-24T08:39:33.618Z,62
2023-07-24T08:40:32.828Z,63
2023-07-24T08:41:32.812Z,62.2
2023-07-24T08:42:32.838Z,60.7
2023-07-24T08:43:32.849Z,59.7
2023-07-24T08:44:33.386Z,59.5
2023-07-24T08:45:33.418Z,59.2
2023-07-24T08:46:33.119Z,59.4
2023-07-24T08:47:33.373Z,59
2023-07-24T08:48:32.855Z,58.2
2023-07-24T08:49:33.558Z,58.5
2023-07-24T08:50:32.871Z,58.8
2023-07-24T08:51:33.059Z,58.4
2023-07-24T08:52:36.368Z,58.9
2023-07-24T08:53:33.461Z,58.1
2023-07-24T08:54:33.412Z,57.8
2023-07-24T08:55:33.558Z,57.9
2023-07-24T08:56:33.086Z,60.6
2023-07-24T08:57:32.827Z,57.7
2023-07-24T08:58:32.834Z,57.5
2023-07-24T08:59:31.971Z,57.2
2023-07-24T09:00:32.842Z,57.3
2023-07-24T09:01:32.942Z,57.7
2023-07-24T09:02:32.971Z,57.7
2023-07-24T09:03:33.394Z,57.7
2023-07-24T09:04:32.845Z,57.8
2023-07-24T09:05:32.832Z,59.7
2023-07-24T09:06:33.621Z,58.3
2023-07-24T09:07:32.858Z,58.6
2023-07-24T09:08:33.236Z,58.5
2023-07-24T09:09:32.833Z,58.7
2023-07-24T09:10:32.850Z,58.7
2023-07-24T09:11:33.025Z,58.4
2023-07-24T09:12:32.836Z,58.7
2023-07-24T09:13:32.844Z,59
2023-07-24T09:14:33.114Z,59.6
2023-07-24T09:15:32.814Z,59.2
2023-07-24T09:16:33.602Z,59.1
2023-07-24T09:17:33.276Z,59.2
2023-07-24T09:18:33.664Z,59.2
2023-07-24T09:19:32.843Z,60.2
2023-07-24T09:20:33.076Z,59.3
2023-07-24T09:21:33.652Z,59
2023-07-24T09:22:34.803Z,58.4
2023-07-24T09:23:32.842Z,59
2023-07-24T09:24:33.016Z,58.9
2023-07-24T09:25:33.310Z,58.7
2023-07-24T09:26:33.943Z,58.6
2023-07-24T09:27:34.360Z,58.8
2023-07-24T09:28:33.025Z,58.5
2023-07-24T09:29:31.892Z,58.3
2023-07-24T09:30:32.858Z,58.2
2023-07-24T09:31:32.892Z,59.4
2023-07-24T09:32:33.177Z,58.9
2023-07-24T09:33:33.232Z,58.9
2023-07-24T09:34:32.894Z,58.4
2023-07-24T09:35:32.852Z,60.9
2023-07-24T09:36:33.023Z,62
2023-07-24T09:37:33.410Z,62.1
2023-07-24T09:38:32.905Z,62.1
2023-07-24T09:39:32.903Z,59.9
2023-07-24T09:40:32.852Z,61.3
2023-07-24T09:41:33.711Z,59.8
2023-07-24T09:42:32.929Z,63.5
2023-07-24T09:43:38.888Z,63
2023-07-24T09:44:33.002Z,62.4
2023-07-24T09:45:36.284Z,60.5
2023-07-24T09:46:34.438Z,61.3
2023-07-24T09:47:55.058Z,62.7
2023-07-24T09:49:33.473Z,62.5
2023-07-24T09:50:33.412Z,60.8
2023-07-24T09:51:33.026Z,62
2023-07-24T09:52:33.053Z,59.9
2023-07-24T09:53:33.312Z,60.4
2023-07-24T09:54:33.436Z,63.5
2023-07-24T09:55:32.844Z,60.9
2023-07-24T09:56:47.404Z,61.7
2023-07-24T09:57:32.837Z,62.3
2023-07-24T09:58:33.674Z,61.3
2023-07-24T09:59:31.929Z,61.3
2023-07-24T10:00:33.106Z,62.1
2023-07-24T10:01:33.678Z,61.4
2023-07-24T10:02:33.539Z,60.5
2023-07-24T10:03:32.872Z,61.9
2023-07-24T10:04:33.592Z,61.8
2023-07-24T10:05:32.880Z,60.9
2023-07-24T10:06:33.977Z,60.1
2023-07-24T10:07:33.560Z,59.9
2023-07-24T10:08:33.298Z,59.6
2023-07-24T10:09:32.867Z,59.5
2023-07-24T10:10:32.842Z,58.9
2023-07-24T10:11:33.995Z,58.7
2023-07-24T10:12:33.385Z,62.6
2023-07-24T10:13:33.338Z,60.8
2023-07-24T10:14:32.848Z,59.1
2023-07-24T10:15:32.864Z,61.7
2023-07-24T10:16:32.876Z,59.4
2023-07-24T10:17:32.894Z,58.5
2023-07-24T10:18:33.487Z,61.1
2023-07-24T10:19:33.444Z,60.5
2023-07-24T10:20:33.622Z,58.7
2023-07-24T10:21:33.311Z,58.4
2023-07-24T10:22:32.889Z,61
2023-07-24T10:23:32.861Z,59.6
2023-07-24T10:24:40.869Z,61
2023-07-24T10:25:32.899Z,59.4
2023-07-24T10:26:32.838Z,59
2023-07-24T10:27:32.855Z,57.9
2023-07-24T10:28:32.855Z,62.5
2023-07-24T10:29:32.053Z,62.8
2023-07-24T10:30:34.599Z,59.6
2023-07-24T10:31:33.970Z,59.1
2023-07-24T10:32:33.017Z,57.8
2023-07-24T10:33:33.850Z,57.1
2023-07-24T10:34:33.476Z,58
2023-07-24T10:35:33.295Z,57
2023-07-24T10:36:32.977Z,57.4
2023-07-24T10:37:32.870Z,60.6
2023-07-24T10:38:32.890Z,57.1
2023-07-24T10:39:32.966Z,56.2
2023-07-24T10:40:32.921Z,55.7
2023-07-24T10:41:33.778Z,55.5
2023-07-24T10:42:33.466Z,55.3
2023-07-24T10:43:32.900Z,56
2023-07-24T10:44:32.993Z,56
2023-07-24T10:45:32.983Z,55.9
2023-07-24T10:46:32.945Z,55.8
2023-07-24T10:47:33.066Z,55.4
2023-07-24T10:48:32.903Z,57.2
2023-07-24T10:49:33.075Z,58.9
2023-07-24T10:50:33.463Z,58.3
2023-07-24T10:51:33.281Z,56.8
2023-07-24T10:52:32.458Z,57.4
2023-07-24T10:53:32.943Z,58.3
2023-07-24T10:54:33.078Z,57.9
2023-07-24T10:55:33.168Z,57.5
2023-07-24T10:56:33.263Z,57.6
2023-07-24T10:57:32.882Z,57.3
2023-07-24T10:58:33.039Z,57.5
2023-07-24T10:59:32.558Z,57.3
2023-07-24T11:00:33.423Z,57.4
2023-07-24T11:01:33.586Z,57.3
2023-07-24T11:02:32.894Z,57.8
2023-07-24T11:03:32.868Z,57.6
2023-07-24T11:04:33.054Z,57.9
2023-07-24T11:05:33.159Z,58.2
2023-07-24T11:06:32.904Z,57.8
2023-07-24T11:07:32.874Z,57.6
2023-07-24T11:08:32.892Z,58.1
2023-07-24T11:09:33.291Z,58
2023-07-24T11:10:32.926Z,58.5
2023-07-24T11:11:33.408Z,57.7
2023-07-24T11:12:33.655Z,58
2023-07-24T11:13:33.492Z,57.4
2023-07-24T11:14:33.248Z,58.6
2023-07-24T11:15:32.850Z,59.5
2023-07-24T11:16:33.070Z,57.3
2023-07-24T11:17:32.931Z,57.1
2023-07-24T11:18:44.463Z,57.7
2023-07-24T11:19:32.885Z,56.5
2023-07-24T11:20:32.877Z,56.2
2023-07-24T11:21:33.234Z,58.4
2023-07-24T11:22:32.865Z,55.5
2023-07-24T11:23:32.865Z,55.3
2023-07-24T11:24:32.916Z,54.7
2023-07-24T11:25:32.911Z,55.3
2023-07-24T11:26:33.265Z,55.2
2023-07-24T11:27:32.879Z,54.7
2023-07-24T11:28:32.915Z,55.2
2023-07-24T11:30:32.877Z,55.3
2023-07-24T11:31:33.395Z,55.2
2023-07-24T11:32:32.916Z,56.1
2023-07-24T11:33:32.885Z,55.6
2023-07-24T11:34:32.975Z,56.2
2023-07-24T11:35:32.939Z,55.9
2023-07-24T11:36:32.899Z,56.5
2023-07-24T11:37:32.884Z,56.4
2023-07-24T11:38:33.381Z,56.5
2023-07-24T11:39:33.397Z,56.5
2023-07-24T11:40:32.873Z,56.4
2023-07-24T11:41:33.133Z,56
2023-07-24T11:42:32.884Z,55.9
2023-07-24T11:43:32.874Z,56
2023-07-24T11:44:32.885Z,55.7
2023-07-24T11:45:32.887Z,55.8
2023-07-24T11:46:32.982Z,55.9
2023-07-24T11:47:33.739Z,56
2023-07-24T11:48:33.365Z,56.3
2023-07-24T11:49:32.903Z,56.2
2023-07-24T11:50:33.182Z,56.2
2023-07-24T11:51:33.104Z,55.8
2023-07-24T11:52:34.526Z,56
2023-07-24T11:53:32.896Z,56.5
2023-07-24T11:54:32.881Z,55.8
2023-07-24T11:55:33.227Z,55.8
2023-07-24T11:56:33.577Z,56.3
2023-07-24T11:57:32.893Z,56
2023-07-24T11:58:33.360Z,56
2023-07-24T11:59:32.406Z,55.6
2023-07-24T12:00:34.840Z,56
2023-07-24T12:01:33.761Z,56
2023-07-24T12:02:33.960Z,55.8
2023-07-24T12:03:33.505Z,56
2023-07-24T12:04:33.033Z,56.4
2023-07-24T12:05:32.901Z,56.3
2023-07-24T12:06:33.424Z,56.1
2023-07-24T12:07:33.707Z,56.3
2023-07-24T12:08:33.643Z,56.2
2023-07-24T12:09:33.480Z,56.1
2023-07-24T12:10:32.900Z,56.1
2023-07-24T12:11:33.172Z,56.1
2023-07-24T12:12:32.920Z,56.3
2023-07-24T12:13:33.087Z,56.3
2023-07-24T12:15:32.891Z,55.8
2023-07-24T12:16:32.918Z,55.9
2023-07-24T12:17:32.927Z,55.5
2023-07-24T12:18:32.923Z,55.3
2023-07-24T12:19:32.933Z,56
2023-07-24T12:20:32.910Z,55.9
2023-07-24T12:21:33.151Z,55.8
2023-07-24T12:22:33.224Z,57
2023-07-24T12:23:33.295Z,60.3
2023-07-24T12:24:33.719Z,63.5
2023-07-24T12:25:32.922Z,65.4
2023-07-24T12:26:32.892Z,68.3
2023-07-24T12:27:32.921Z,71.2
2023-07-24T12:28:33.075Z,73.7
2023-07-24T12:29:32.762Z,76
2023-07-24T12:30:32.928Z,75.9
2023-07-24T12:31:34.398Z,76.9
2023-07-24T12:32:32.983Z,74.3
2023-07-24T12:33:32.893Z,76
2023-07-24T12:34:32.921Z,71.4
2023-07-24T12:35:33.902Z,70.4
2023-07-24T12:36:33.035Z,71.8
2023-07-24T12:37:32.921Z,70.4
2023-07-24T12:38:32.901Z,71.4
2023-07-24T12:39:32.960Z,74.6
2023-07-24T12:40:33.127Z,72.2
2023-07-24T12:41:33.489Z,74.4
2023-07-24T12:42:33.946Z,73.8
2023-07-24T12:43:33.957Z,76.7
2023-07-24T12:44:32.965Z,74.5
2023-07-24T12:45:32.926Z,75.1
2023-07-24T12:46:33.748Z,77.1
2023-07-24T12:47:33.370Z,77.6
2023-07-24T12:48:33.000Z,80.7
2023-07-24T12:49:33.961Z,81.9
2023-07-24T12:50:32.925Z,80.2
2023-07-24T12:51:33.132Z,80.2
2023-07-24T12:52:32.913Z,81.2
2023-07-24T12:53:41.377Z,82.3
2023-07-24T12:54:39.635Z,81.9
2023-07-24T12:55:32.908Z,81.5
2023-07-24T12:56:33.543Z,80.2
2023-07-24T12:57:32.911Z,82.2
2023-07-24T12:58:32.926Z,83.3
2023-07-24T12:59:32.491Z,82.3
2023-07-24T13:00:33.573Z,83.6
2023-07-24T13:01:33.164Z,83.9
2023-07-24T13:02:33.010Z,82.6
2023-07-24T13:03:33.506Z,84.6
2023-07-24T13:04:33.015Z,85.5
2023-07-24T13:05:32.909Z,85.7
2023-07-24T13:06:33.289Z,85.5
2023-07-24T13:07:32.907Z,86.6
2023-07-24T13:08:32.914Z,88
2023-07-24T13:10:32.956Z,83.8
2023-07-24T13:11:33.191Z,86.9
2023-07-24T13:12:33.364Z,87.2
2023-07-24T13:13:32.919Z,87.8
2023-07-24T13:15:32.908Z,87.8
2023-07-24T13:16:33.222Z,94
2023-07-24T13:17:33.657Z,93.8
2023-07-24T13:18:32.941Z,88.1
2023-07-24T13:19:32.916Z,92.3
2023-07-24T13:20:32.917Z,92.4
2023-07-24T13:21:33.635Z,96.6
2023-07-24T13:22:32.201Z,98.1
2023-07-24T13:23:32.932Z,100
2023-07-24T13:24:33.569Z,97.6
2023-07-24T13:25:33.363Z,93.1
2023-07-24T13:26:33.188Z,91.5
2023-07-24T13:27:32.901Z,92.1
2023-07-24T13:28:33.437Z,92.2
2023-07-24T13:29:32.454Z,89.6
2023-07-24T13:30:32.974Z,91.4
2023-07-24T13:31:33.284Z,92
2023-07-24T13:32:32.967Z,91.8
2023-07-24T13:33:32.919Z,91.4
2023-07-24T13:34:33.302Z,90.9
2023-07-24T13:35:32.919Z,89.8
2023-07-24T13:36:33.220Z,87.9
2023-07-24T13:37:33.038Z,88.9
2023-07-24T13:38:32.936Z,89.7
2023-07-24T13:39:32.965Z,90.1